EST,Max TemperatureF,Mean TemperatureF,Min TemperatureF,Max Dew PointF,MeanDew PointF,Min DewpointF,Max Humidity, Mean Humidity, Min Humidity, Max Sea Level PressureIn, Mean Sea Level PressureIn, Min Sea Level PressureIn, Max VisibilityMiles, Mean VisibilityMiles, Min VisibilityMiles, Max Wind SpeedMPH, Mean Wind SpeedMPH, Max Gust SpeedMPH,PrecipitationIn, CloudCover, Events, WindDirDegrees
2013-1-1,30,24,19,27,19,11,89,78,68,30.08,30.01,29.93,10,8,4,9,7,,0.00,8,Snow,279
2013-1-2,21,19,17,13,12,10,77,72,68,30.23,30.13,30.00,10,10,8,9,5,,0.00,8,Snow,233
2013-1-3,28,19,10,21,13,8,92,78,60,30.21,30.14,30.03,10,9,7,16,6,23,0.00,7,,208
2013-1-4,30,27,24,21,17,14,81,66,54,30.21,30.12,30.06,10,10,8,22,12,29,0.00,5,,232
2013-1-5,32,28,24,24,20,16,81,74,66,30.36,30.24,30.11,10,9,7,15,8,20,0.00,6,Snow,203
2013-1-6,35,32,30,31,27,23,93,82,69,30.19,30.03,29.95,10,5,1,12,8,18,0.03,8,Rain-Snow,228
2013-1-7,32,29,25,28,24,20,93,83,69,30.43,30.32,30.17,10,8,4,12,7,17,0.00,6,Rain,226
2013-1-8,39,31,23,25,21,19,85,69,49,30.34,30.30,30.25,10,9,5,10,6,,0.30,0,,186
2013-1-9,46,40,33,34,27,24,83,65,49,30.46,30.25,30.14,10,10,10,15,7,29,0.26,1,Rain,225
2013-1-10,39,32,26,28,25,21,92,71,47,30.62,30.50,30.30,10,10,5,7,4,,0.00,1,,196
2013-1-11,46,42,39,46,39,22,100,83,49,30.24,30.01,29.90,10,4,0,8,6,18,0.42,7,Fog-Rain,173
2013-1-12,59,52,46,52,49,44,97,90,75,30.04,30.01,29.93,10,5,0,13,6,21,0.01,5,Fog,192
2013-1-13,64,54,44,55,52,42,94,82,68,29.88,29.84,29.80,10,9,4,17,7,30,0.11,7,Rain,209
2013-1-14,42,34,26,39,27,19,93,81,66,30.42,30.19,29.90,10,8,1,20,11,33,0.05,8,Rain,297
2013-1-15,30,28,26,21,18,16,75,68,56,30.41,30.31,30.12,10,10,10,6,4,,0.00,4,,13
2013-1-16,34,31,28,28,24,19,86,74,64,30.05,29.93,29.84,10,10,10,14,4,20,0.00,5,,216
2013-1-17,34,29,24,27,22,16,93,74,56,30.18,30.10,29.98,10,8,1,14,9,23,0.00,8,Snow,289
2013-1-18,30,24,17,16,11,4,74,60,51,30.47,30.33,30.14,10,9,2,15,11,28,0.00,5,Snow,249
2013-1-19,48,40,33,25,21,16,54,44,33,30.13,29.97,29.74,10,10,10,17,12,26,0.00,1,,205
2013-1-20,45,32,19,29,14,9,86,69,46,30.14,29.99,29.64,10,5,0,28,16,39,0.00,8,Fog-Snow,263
2013-1-21,19,14,10,16,9,2,86,72,52,30.09,29.96,29.85,10,4,0,18,8,31,0.00,8,Fog-Snow,244
2013-1-22,10,8,5,5,0,-7,84,74,58,30.26,30.10,29.94,10,2,0,23,14,38,0.00,8,Fog-Snow,259
2013-1-23,12,8,3,6,1,-1,85,77,59,30.26,30.16,30.02,10,5,1,14,7,21,0.00,8,Snow,226
2013-1-24,16,12,7,9,6,-2,92,80,47,30.56,30.27,29.99,10,5,0,12,4,22,0.00,6,Fog-Snow,280
2013-1-25,14,10,6,10,7,3,87,81,70,30.51,30.18,30.00,10,5,0,9,2,,0.00,7,Snow,132
2013-1-26,24,19,14,18,15,10,93,85,69,30.45,30.21,30.01,10,4,1,8,5,,0.00,8,Snow,245
2013-1-27,28,22,16,21,15,12,92,72,55,30.54,30.43,30.27,10,8,2,7,4,,0.05,5,Snow,196
2013-1-28,45,36,26,43,33,21,100,91,80,30.29,30.07,29.92,7,2,0,12,5,21,0.83,8,Fog-Rain-Snow,208
2013-1-29,57,47,37,52,47,36,100,92,72,30.04,29.91,29.73,10,3,0,10,5,20,0.18,7,Fog-Rain,181
2013-1-30,61,51,39,54,49,35,94,80,64,29.68,29.34,29.13,10,9,2,21,10,36,0.31,6,Rain,197
2013-1-31,37,27,17,34,18,10,93,76,57,29.82,29.54,29.21,10,3,0,29,20,47,0.06,8,Fog-Rain-Snow,253